sensor_id;sensor_type;location;lat;lon;timestamp;P1;durP1;ratioP1;P2;durP2;ratioP2
40022;SDS011;25713;-35.352;149.036;2023-12-20T00:00:40;0.10;;;0.10;;
40022;SDS011;25713;-35.352;149.036;2023-12-20T00:03:09;0.10;;;0.10;;
40022;SDS011;25713;-35.352;149.036;2023-12-20T00:05:39;1.27;;;0.15;;
40022;SDS011;25713;-35.352;149.036;2023-12-20T00:08:09;0.10;;;0.10;;
40022;SDS011;25713;-35.352;149.036;2023-12-20T00:10:40;0.50;;;0.10;;
40022;SDS011;25713;-35.352;149.036;2023-12-20T00:13:10;1.10;;;0.30;;
40022;SDS011;25713;-35.352;149.036;2023-12-20T00:15:40;0.10;;;0.10;;
40022;SDS011;25713;-35.352;149.036;2023-12-20T00:18:10;0.32;;;0.10;;
40022;SDS011;25713;-35.352;149.036;2023-12-20T00:20:39;0.10;;;0.10;;
40022;SDS011;25713;-35.352;149.036;2023-12-20T00:23:09;0.63;;;0.20;;
40022;SDS011;25713;-35.352;149.036;2023-12-20T00:25:40;0.10;;;0.10;;
40022;SDS011;25713;-35.352;149.036;2023-12-20T00:28:09;0.35;;;0.20;;
40022;SDS011;25713;-35.352;149.036;2023-12-20T00:30:39;2.92;;;0.25;;
40022;SDS011;25713;-35.352;149.036;2023-12-20T00:33:09;0.13;;;0.13;;
40022;SDS011;25713;-35.352;149.036;2023-12-20T00:35:38;0.20;;;0.10;;
40022;SDS011;25713;-35.352;149.036;2023-12-20T00:38:08;0.10;;;0.10;;
40022;SDS011;25713;-35.352;149.036;2023-12-20T00:40:39;1.13;;;0.15;;
40022;SDS011;25713;-35.352;149.036;2023-12-20T00:43:09;0.65;;;0.10;;
40022;SDS011;25713;-35.352;149.036;2023-12-20T00:45:39;0.52;;;0.10;;
40022;SDS011;25713;-35.352;149.036;2023-12-20T00:48:08;0.10;;;0.10;;
40022;SDS011;25713;-35.352;149.036;2023-12-20T00:50:38;0.75;;;0.20;;
40022;SDS011;25713;-35.352;149.036;2023-12-20T00:53:07;0.10;;;0.10;;
40022;SDS011;25713;-35.352;149.036;2023-12-20T00:55:39;0.20;;;0.20;;
40022;SDS011;25713;-35.352;149.036;2023-12-20T00:58:09;0.17;;;0.17;;
40022;SDS011;25713;-35.352;149.036;2023-12-20T01:00:38;0.10;;;0.10;;
40022;SDS011;25713;-35.352;149.036;2023-12-20T01:03:08;2.75;;;0.32;;
40022;SDS011;25713;-35.352;149.036;2023-12-20T01:05:37;0.30;;;0.20;;
40022;SDS011;25713;-35.352;149.036;2023-12-20T01:08:07;0.13;;;0.13;;
40022;SDS011;25713;-35.352;149.036;2023-12-20T01:10:36;0.20;;;0.10;;
40022;SDS011;25713;-35.352;149.036;2023-12-20T01:13:08;0.10;;;0.10;;
40022;SDS011;25713;-35.352;149.036;2023-12-20T01:15:38;0.10;;;0.10;;
40022;SDS011;25713;-35.352;149.036;2023-12-20T01:18:07;0.10;;;0.10;;
40022;SDS011;25713;-35.352;149.036;2023-12-20T01:20:37;0.13;;;0.13;;
40022;SDS011;25713;-35.352;149.036;2023-12-20T01:23:06;0.22;;;0.13;;
40022;SDS011;25713;-35.352;149.036;2023-12-20T01:25:36;0.10;;;0.10;;
40022;SDS011;25713;-35.352;149.036;2023-12-20T01:28:07;0.20;;;0.20;;
40022;SDS011;25713;-35.352;149.036;2023-12-20T01:30:37;0.25;;;0.20;;
40022;SDS011;25713;-35.352;149.036;2023-12-20T01:33:07;1.08;;;0.10;;
40022;SDS011;25713;-35.352;149.036;2023-12-20T01:35:36;0.10;;;0.10;;
40022;SDS011;25713;-35.352;149.036;2023-12-20T01:38:06;0.47;;;0.20;;
40022;SDS011;25713;-35.352;149.036;2023-12-20T01:40:35;0.10;;;0.10;;
40022;SDS011;25713;-35.352;149.036;2023-12-20T01:43:07;0.17;;;0.17;;
40022;SDS011;25713;-35.352;149.036;2023-12-20T01:45:37;0.95;;;0.30;;
40022;SDS011;25713;-35.352;149.036;2023-12-20T01:48:07;0.93;;;0.20;;
40022;SDS011;25713;-35.352;149.036;2023-12-20T01:50:37;0.93;;;0.20;;
40022;SDS011;25713;-35.352;149.036;2023-12-20T01:53:07;0.95;;;0.30;;
40022;SDS011;25713;-35.352;149.036;2023-12-20T01:55:42;0.20;;;0.20;;
40022;SDS011;25713;-35.352;149.036;2023-12-20T01:58:12;0.15;;;0.15;;
40022;SDS011;25713;-35.352;149.036;2023-12-20T02:00:43;0.43;;;0.30;;
40022;SDS011;25713;-35.352;149.036;2023-12-20T02:03:13;0.40;;;0.20;;
40022;SDS011;25713;-35.352;149.036;2023-12-20T02:05:43;0.22;;;0.22;;
40022;SDS011;25713;-35.352;149.036;2023-12-20T02:08:14;0.10;;;0.10;;
40022;SDS011;25713;-35.352;149.036;2023-12-20T02:10:46;0.30;;;0.28;;
40022;SDS011;25713;-35.352;149.036;2023-12-20T02:13:16;0.20;;;0.20;;
40022;SDS011;25713;-35.352;149.036;2023-12-20T02:15:45;0.20;;;0.20;;
40022;SDS011;25713;-35.352;149.036;2023-12-20T02:18:15;0.20;;;0.10;;
40022;SDS011;25713;-35.352;149.036;2023-12-20T02:20:45;0.52;;;0.20;;
40022;SDS011;25713;-35.352;149.036;2023-12-20T02:23:16;0.20;;;0.20;;
40022;SDS011;25713;-35.352;149.036;2023-12-20T02:25:46;0.60;;;0.30;;
40022;SDS011;25713;-35.352;149.036;2023-12-20T02:28:16;0.20;;;0.20;;
40022;SDS011;25713;-35.352;149.036;2023-12-20T02:30:46;0.20;;;0.20;;
40022;SDS011;25713;-35.352;149.036;2023-12-20T02:33:15;0.20;;;0.20;;
40022;SDS011;25713;-35.352;149.036;2023-12-20T02:35:45;0.43;;;0.30;;
40022;SDS011;25713;-35.352;149.036;2023-12-20T02:38:17;0.57;;;0.40;;
40022;SDS011;25713;-35.352;149.036;2023-12-20T02:40:47;7.80;;;0.35;;
40022;SDS011;25713;-35.352;149.036;2023-12-20T02:43:16;0.20;;;0.20;;
40022;SDS011;25713;-35.352;149.036;2023-12-20T02:45:45;0.20;;;0.20;;
40022;SDS011;25713;-35.352;149.036;2023-12-20T02:48:15;1.15;;;0.20;;
40022;SDS011;25713;-35.352;149.036;2023-12-20T02:50:45;0.30;;;0.28;;
40022;SDS011;25713;-35.352;149.036;2023-12-20T02:53:18;0.20;;;0.20;;
40022;SDS011;25713;-35.352;149.036;2023-12-20T02:55:48;0.60;;;0.20;;
40022;SDS011;25713;-35.352;149.036;2023-12-20T02:58:17;0.90;;;0.20;;
40022;SDS011;25713;-35.352;149.036;2023-12-20T03:00:47;0.10;;;0.10;;
40022;SDS011;25713;-35.352;149.036;2023-12-20T03:03:17;0.10;;;0.10;;
40022;SDS011;25713;-35.352;149.036;2023-12-20T03:05:46;0.10;;;0.10;;
40022;SDS011;25713;-35.352;149.036;2023-12-20T03:08:17;1.00;;;0.30;;
40022;SDS011;25713;-35.352;149.036;2023-12-20T03:10:47;1.13;;;0.20;;
40022;SDS011;25713;-35.352;149.036;2023-12-20T03:13:16;0.20;;;0.20;;
40022;SDS011;25713;-35.352;149.036;2023-12-20T03:15:46;0.40;;;0.20;;
40022;SDS011;25713;-35.352;149.036;2023-12-20T03:18:15;0.52;;;0.20;;
40022;SDS011;25713;-35.352;149.036;2023-12-20T03:20:45;0.43;;;0.28;;
40022;SDS011;25713;-35.352;149.036;2023-12-20T03:23:14;0.45;;;0.30;;
40022;SDS011;25713;-35.352;149.036;2023-12-20T03:25:46;0.40;;;0.20;;
40022;SDS011;25713;-35.352;149.036;2023-12-20T03:28:15;0.45;;;0.28;;
40022;SDS011;25713;-35.352;149.036;2023-12-20T03:30:45;0.10;;;0.10;;
40022;SDS011;25713;-35.352;149.036;2023-12-20T03:33:14;0.20;;;0.20;;
40022;SDS011;25713;-35.352;149.036;2023-12-20T03:35:44;0.22;;;0.20;;
40022;SDS011;25713;-35.352;149.036;2023-12-20T03:38:13;0.43;;;0.20;;
40022;SDS011;25713;-35.352;149.036;2023-12-20T03:40:45;0.20;;;0.15;;
40022;SDS011;25713;-35.352;149.036;2023-12-20T03:43:14;0.20;;;0.20;;
40022;SDS011;25713;-35.352;149.036;2023-12-20T03:45:44;0.85;;;0.20;;
40022;SDS011;25713;-35.352;149.036;2023-12-20T03:48:13;0.13;;;0.13;;
40022;SDS011;25713;-35.352;149.036;2023-12-20T03:50:43;0.32;;;0.20;;
40022;SDS011;25713;-35.352;149.036;2023-12-20T03:53:12;1.83;;;0.20;;
40022;SDS011;25713;-35.352;149.036;2023-12-20T03:55:44;0.20;;;0.20;;
40022;SDS011;25713;-35.352;149.036;2023-12-20T03:58:14;1.37;;;0.30;;
40022;SDS011;25713;-35.352;149.036;2023-12-20T04:00:43;0.20;;;0.20;;
40022;SDS011;25713;-35.352;149.036;2023-12-20T04:03:13;0.40;;;0.30;;
40022;SDS011;25713;-35.352;149.036;2023-12-20T04:05:42;0.55;;;0.40;;
40022;SDS011;25713;-35.352;149.036;2023-12-20T04:08:12;2.15;;;0.40;;
40022;SDS011;25713;-35.352;149.036;2023-12-20T04:10:41;0.47;;;0.20;;
40022;SDS011;25713;-35.352;149.036;2023-12-20T04:13:13;0.75;;;0.52;;
40022;SDS011;25713;-35.352;149.036;2023-12-20T04:15:43;0.75;;;0.20;;
40022;SDS011;25713;-35.352;149.036;2023-12-20T04:18:12;0.30;;;0.30;;
40022;SDS011;25713;-35.352;149.036;2023-12-20T04:20:42;1.10;;;0.20;;
40022;SDS011;25713;-35.352;149.036;2023-12-20T04:23:12;0.40;;;0.30;;
40022;SDS011;25713;-35.352;149.036;2023-12-20T04:25:41;2.38;;;0.40;;
40022;SDS011;25713;-35.352;149.036;2023-12-20T04:28:13;0.30;;;0.30;;
40022;SDS011;25713;-35.352;149.036;2023-12-20T04:30:42;0.68;;;0.30;;
40022;SDS011;25713;-35.352;149.036;2023-12-20T04:33:12;0.50;;;0.40;;
40022;SDS011;25713;-35.352;149.036;2023-12-20T04:35:41;0.30;;;0.30;;
40022;SDS011;25713;-35.352;149.036;2023-12-20T04:38:11;0.98;;;0.35;;
40022;SDS011;25713;-35.352;149.036;2023-12-20T04:40:41;0.30;;;0.30;;
40022;SDS011;25713;-35.352;149.036;2023-12-20T04:43:13;0.30;;;0.30;;
40022;SDS011;25713;-35.352;149.036;2023-12-20T04:45:42;0.40;;;0.30;;
40022;SDS011;25713;-35.352;149.036;2023-12-20T04:48:12;0.43;;;0.28;;
40022;SDS011;25713;-35.352;149.036;2023-12-20T04:50:41;0.90;;;0.40;;
40022;SDS011;25713;-35.352;149.036;2023-12-20T04:53:11;0.77;;;0.30;;
40022;SDS011;25713;-35.352;149.036;2023-12-20T04:55:41;0.30;;;0.30;;
40022;SDS011;25713;-35.352;149.036;2023-12-20T04:58:12;0.60;;;0.40;;
40022;SDS011;25713;-35.352;149.036;2023-12-20T05:00:42;0.30;;;0.30;;
40022;SDS011;25713;-35.352;149.036;2023-12-20T05:03:11;0.50;;;0.35;;
40022;SDS011;25713;-35.352;149.036;2023-12-20T05:05:41;0.52;;;0.30;;
40022;SDS011;25713;-35.352;149.036;2023-12-20T05:08:10;0.30;;;0.30;;
40022;SDS011;25713;-35.352;149.036;2023-12-20T05:10:40;0.77;;;0.30;;
40022;SDS011;25713;-35.352;149.036;2023-12-20T05:13:11;0.40;;;0.40;;
40022;SDS011;25713;-35.352;149.036;2023-12-20T05:15:41;1.15;;;0.60;;
40022;SDS011;25713;-35.352;149.036;2023-12-20T05:18:10;0.95;;;0.40;;
40022;SDS011;25713;-35.352;149.036;2023-12-20T05:20:40;0.52;;;0.47;;
40022;SDS011;25713;-35.352;149.036;2023-12-20T05:23:09;0.47;;;0.40;;
40022;SDS011;25713;-35.352;149.036;2023-12-20T05:25:39;2.13;;;0.40;;
40022;SDS011;25713;-35.352;149.036;2023-12-20T05:28:08;1.30;;;0.38;;
40022;SDS011;25713;-35.352;149.036;2023-12-20T05:30:40;0.80;;;0.55;;
40022;SDS011;25713;-35.352;149.036;2023-12-20T05:33:09;0.50;;;0.40;;
40022;SDS011;25713;-35.352;149.036;2023-12-20T05:35:39;1.92;;;0.50;;
40022;SDS011;25713;-35.352;149.036;2023-12-20T05:38:09;1.30;;;0.40;;
40022;SDS011;25713;-35.352;149.036;2023-12-20T05:40:38;1.58;;;0.70;;
40022;SDS011;25713;-35.352;149.036;2023-12-20T05:43:08;0.68;;;0.50;;
40022;SDS011;25713;-35.352;149.036;2023-12-20T05:45:39;0.63;;;0.50;;
40022;SDS011;25713;-35.352;149.036;2023-12-20T05:48:09;2.03;;;0.50;;
40022;SDS011;25713;-35.352;149.036;2023-12-20T05:50:38;0.57;;;0.57;;
40022;SDS011;25713;-35.352;149.036;2023-12-20T05:53:08;1.88;;;0.70;;
40022;SDS011;25713;-35.352;149.036;2023-12-20T05:55:38;8.82;;;0.90;;
40022;SDS011;25713;-35.352;149.036;2023-12-20T05:58:08;3.63;;;0.70;;
40022;SDS011;25713;-35.352;149.036;2023-12-20T06:00:40;3.47;;;0.80;;
40022;SDS011;25713;-35.352;149.036;2023-12-20T06:03:09;3.05;;;0.80;;
40022;SDS011;25713;-35.352;149.036;2023-12-20T06:05:39;1.42;;;0.50;;
40022;SDS011;25713;-35.352;149.036;2023-12-20T06:08:08;2.03;;;0.60;;
40022;SDS011;25713;-35.352;149.036;2023-12-20T06:10:38;1.80;;;0.70;;
40022;SDS011;25713;-35.352;149.036;2023-12-20T06:13:07;1.70;;;0.63;;
40022;SDS011;25713;-35.352;149.036;2023-12-20T06:15:39;1.75;;;0.57;;
40022;SDS011;25713;-35.352;149.036;2023-12-20T06:18:08;2.28;;;0.63;;
40022;SDS011;25713;-35.352;149.036;2023-12-20T06:20:38;0.60;;;0.50;;
40022;SDS011;25713;-35.352;149.036;2023-12-20T06:23:08;1.27;;;0.60;;
40022;SDS011;25713;-35.352;149.036;2023-12-20T06:25:38;1.90;;;0.50;;
40022;SDS011;25713;-35.352;149.036;2023-12-20T06:28:07;1.25;;;0.70;;
40022;SDS011;25713;-35.352;149.036;2023-12-20T06:30:39;1.20;;;0.50;;
40022;SDS011;25713;-35.352;149.036;2023-12-20T06:33:09;0.87;;;0.60;;
40022;SDS011;25713;-35.352;149.036;2023-12-20T06:35:38;3.22;;;0.60;;
40022;SDS011;25713;-35.352;149.036;2023-12-20T06:38:08;1.75;;;0.70;;
40022;SDS011;25713;-35.352;149.036;2023-12-20T06:40:38;2.08;;;0.75;;
40022;SDS011;25713;-35.352;149.036;2023-12-20T06:43:07;3.15;;;1.60;;
40022;SDS011;25713;-35.352;149.036;2023-12-20T06:45:37;4.63;;;1.52;;
40022;SDS011;25713;-35.352;149.036;2023-12-20T06:48:09;5.68;;;3.80;;
40022;SDS011;25713;-35.352;149.036;2023-12-20T06:50:38;29.63;;;19.17;;
40022;SDS011;25713;-35.352;149.036;2023-12-20T06:53:08;9.27;;;5.82;;
40022;SDS011;25713;-35.352;149.036;2023-12-20T06:55:38;17.70;;;10.57;;
40022;SDS011;25713;-35.352;149.036;2023-12-20T06:58:07;17.10;;;10.77;;
40022;SDS011;25713;-35.352;149.036;2023-12-20T07:00:37;12.68;;;8.20;;
40022;SDS011;25713;-35.352;149.036;2023-12-20T07:03:09;20.58;;;11.88;;
40022;SDS011;25713;-35.352;149.036;2023-12-20T07:05:39;33.33;;;17.45;;
40022;SDS011;25713;-35.352;149.036;2023-12-20T07:08:09;11.57;;;6.82;;
40022;SDS011;25713;-35.352;149.036;2023-12-20T07:10:38;12.13;;;7.07;;
40022;SDS011;25713;-35.352;149.036;2023-12-20T07:13:08;9.75;;;6.10;;
40022;SDS011;25713;-35.352;149.036;2023-12-20T07:15:38;4.75;;;3.40;;
40022;SDS011;25713;-35.352;149.036;2023-12-20T07:18:09;7.85;;;3.85;;
40022;SDS011;25713;-35.352;149.036;2023-12-20T07:20:39;6.68;;;3.22;;
40022;SDS011;25713;-35.352;149.036;2023-12-20T07:23:09;3.78;;;2.50;;
40022;SDS011;25713;-35.352;149.036;2023-12-20T07:25:38;3.47;;;1.73;;
40022;SDS011;25713;-35.352;149.036;2023-12-20T07:28:08;3.42;;;2.30;;
40022;SDS011;25713;-35.352;149.036;2023-12-20T07:30:37;2.67;;;1.33;;
40022;SDS011;25713;-35.352;149.036;2023-12-20T07:33:09;2.10;;;1.48;;
40022;SDS011;25713;-35.352;149.036;2023-12-20T07:35:38;2.20;;;1.15;;
40022;SDS011;25713;-35.352;149.036;2023-12-20T07:38:08;3.53;;;1.50;;
40022;SDS011;25713;-35.352;149.036;2023-12-20T07:40:37;1.52;;;1.00;;
40022;SDS011;25713;-35.352;149.036;2023-12-20T07:43:07;2.00;;;1.00;;
40022;SDS011;25713;-35.352;149.036;2023-12-20T07:45:37;1.58;;;0.95;;
40022;SDS011;25713;-35.352;149.036;2023-12-20T07:48:06;1.70;;;0.80;;
40022;SDS011;25713;-35.352;149.036;2023-12-20T07:50:40;2.10;;;0.88;;
40022;SDS011;25713;-35.352;149.036;2023-12-20T07:53:10;2.42;;;0.57;;
40022;SDS011;25713;-35.352;149.036;2023-12-20T07:55:39;2.08;;;0.70;;
40022;SDS011;25713;-35.352;149.036;2023-12-20T07:58:09;1.58;;;0.70;;
40022;SDS011;25713;-35.352;149.036;2023-12-20T08:00:39;2.97;;;0.60;;
40022;SDS011;25713;-35.352;149.036;2023-12-20T08:03:11;2.38;;;1.00;;
40022;SDS011;25713;-35.352;149.036;2023-12-20T08:05:41;1.38;;;0.63;;
40022;SDS011;25713;-35.352;149.036;2023-12-20T08:08:11;1.65;;;0.60;;
40022;SDS011;25713;-35.352;149.036;2023-12-20T08:10:40;0.80;;;0.60;;
40022;SDS011;25713;-35.352;149.036;2023-12-20T08:13:10;1.55;;;0.50;;
40022;SDS011;25713;-35.352;149.036;2023-12-20T08:15:40;1.23;;;0.55;;
40022;SDS011;25713;-35.352;149.036;2023-12-20T08:18:13;1.52;;;0.60;;
40022;SDS011;25713;-35.352;149.036;2023-12-20T08:20:43;0.93;;;0.50;;
40022;SDS011;25713;-35.352;149.036;2023-12-20T08:23:12;1.40;;;0.55;;
40022;SDS011;25713;-35.352;149.036;2023-12-20T08:25:42;1.25;;;0.40;;
40022;SDS011;25713;-35.352;149.036;2023-12-20T08:28:11;1.50;;;0.60;;
40022;SDS011;25713;-35.352;149.036;2023-12-20T08:30:41;0.68;;;0.40;;
40022;SDS011;25713;-35.352;149.036;2023-12-20T08:33:13;2.28;;;0.63;;
40022;SDS011;25713;-35.352;149.036;2023-12-20T08:35:43;0.85;;;0.40;;
40022;SDS011;25713;-35.352;149.036;2023-12-20T08:38:12;1.63;;;0.38;;
40022;SDS011;25713;-35.352;149.036;2023-12-20T08:40:42;1.10;;;0.40;;
40022;SDS011;25713;-35.352;149.036;2023-12-20T08:43:11;0.55;;;0.35;;
40022;SDS011;25713;-35.352;149.036;2023-12-20T08:45:41;0.63;;;0.40;;
40022;SDS011;25713;-35.352;149.036;2023-12-20T08:48:13;0.45;;;0.30;;
40022;SDS011;25713;-35.352;149.036;2023-12-20T08:50:43;0.98;;;0.40;;
40022;SDS011;25713;-35.352;149.036;2023-12-20T08:53:12;2.22;;;0.50;;
40022;SDS011;25713;-35.352;149.036;2023-12-20T08:55:42;1.65;;;0.50;;
40022;SDS011;25713;-35.352;149.036;2023-12-20T08:58:12;1.75;;;0.40;;
40022;SDS011;25713;-35.352;149.036;2023-12-20T09:00:42;1.65;;;0.40;;
40022;SDS011;25713;-35.352;149.036;2023-12-20T09:03:14;0.95;;;0.40;;
40022;SDS011;25713;-35.352;149.036;2023-12-20T09:05:44;0.50;;;0.38;;
40022;SDS011;25713;-35.352;149.036;2023-12-20T09:08:14;0.65;;;0.38;;
40022;SDS011;25713;-35.352;149.036;2023-12-20T09:10:45;3.60;;;0.45;;
40022;SDS011;25713;-35.352;149.036;2023-12-20T09:13:15;0.93;;;0.47;;
40022;SDS011;25713;-35.352;149.036;2023-12-20T09:15:44;0.50;;;0.30;;
40022;SDS011;25713;-35.352;149.036;2023-12-20T09:18:16;0.40;;;0.40;;
40022;SDS011;25713;-35.352;149.036;2023-12-20T09:20:45;0.60;;;0.50;;
40022;SDS011;25713;-35.352;149.036;2023-12-20T09:23:15;2.60;;;0.70;;
40022;SDS011;25713;-35.352;149.036;2023-12-20T09:25:45;0.60;;;0.35;;
40022;SDS011;25713;-35.352;149.036;2023-12-20T09:28:14;0.43;;;0.35;;
40022;SDS011;25713;-35.352;149.036;2023-12-20T09:30:44;1.42;;;0.68;;
40022;SDS011;25713;-35.352;149.036;2023-12-20T09:33:15;1.30;;;0.40;;
40022;SDS011;25713;-35.352;149.036;2023-12-20T09:35:45;1.53;;;0.43;;
40022;SDS011;25713;-35.352;149.036;2023-12-20T09:38:15;1.55;;;0.40;;
40022;SDS011;25713;-35.352;149.036;2023-12-20T09:40:44;0.93;;;0.50;;
40022;SDS011;25713;-35.352;149.036;2023-12-20T09:43:14;0.73;;;0.40;;
40022;SDS011;25713;-35.352;149.036;2023-12-20T09:48:18;1.83;;;0.52;;
40022;SDS011;25713;-35.352;149.036;2023-12-20T09:50:48;0.85;;;0.47;;
40022;SDS011;25713;-35.352;149.036;2023-12-20T09:53:18;5.57;;;0.63;;
40022;SDS011;25713;-35.352;149.036;2023-12-20T09:55:50;1.55;;;0.40;;
40022;SDS011;25713;-35.352;149.036;2023-12-20T09:58:21;1.05;;;0.47;;
40022;SDS011;25713;-35.352;149.036;2023-12-20T10:00:50;4.55;;;0.70;;
40022;SDS011;25713;-35.352;149.036;2023-12-20T10:03:25;2.05;;;0.50;;
40022;SDS011;25713;-35.352;149.036;2023-12-20T10:05:56;1.65;;;0.40;;
40022;SDS011;25713;-35.352;149.036;2023-12-20T10:08:26;1.27;;;0.50;;
40022;SDS011;25713;-35.352;149.036;2023-12-20T10:10:56;3.50;;;0.52;;
40022;SDS011;25713;-35.352;149.036;2023-12-20T10:13:25;2.95;;;0.85;;
40022;SDS011;25713;-35.352;149.036;2023-12-20T10:15:55;1.25;;;0.57;;
40022;SDS011;25713;-35.352;149.036;2023-12-20T10:18:27;0.50;;;0.32;;
40022;SDS011;25713;-35.352;149.036;2023-12-20T10:20:58;1.30;;;0.60;;
40022;SDS011;25713;-35.352;149.036;2023-12-20T10:23:28;1.70;;;0.30;;
40022;SDS011;25713;-35.352;149.036;2023-12-20T10:25:58;0.80;;;0.35;;
40022;SDS011;25713;-35.352;149.036;2023-12-20T10:28:28;1.75;;;0.50;;
40022;SDS011;25713;-35.352;149.036;2023-12-20T10:31:02;1.25;;;0.70;;
40022;SDS011;25713;-35.352;149.036;2023-12-20T10:33:35;1.17;;;0.40;;
40022;SDS011;25713;-35.352;149.036;2023-12-20T10:36:08;1.02;;;0.70;;
40022;SDS011;25713;-35.352;149.036;2023-12-20T10:38:38;2.00;;;0.50;;
40022;SDS011;25713;-35.352;149.036;2023-12-20T10:41:10;2.05;;;0.50;;
40022;SDS011;25713;-35.352;149.036;2023-12-20T10:43:41;2.13;;;0.52;;
40022;SDS011;25713;-35.352;149.036;2023-12-20T10:46:13;1.67;;;0.52;;
40022;SDS011;25713;-35.352;149.036;2023-12-20T10:48:47;1.23;;;0.40;;
40022;SDS011;25713;-35.352;149.036;2023-12-20T10:51:22;1.73;;;0.60;;
40022;SDS011;25713;-35.352;149.036;2023-12-20T10:53:53;2.55;;;0.50;;
40022;SDS011;25713;-35.352;149.036;2023-12-20T10:56:24;1.73;;;0.60;;
40022;SDS011;25713;-35.352;149.036;2023-12-20T10:58:57;1.67;;;0.50;;
40022;SDS011;25713;-35.352;149.036;2023-12-20T11:01:30;0.68;;;0.50;;
40022;SDS011;25713;-35.352;149.036;2023-12-20T11:04:05;1.17;;;0.40;;
40022;SDS011;25713;-35.352;149.036;2023-12-20T11:06:45;2.10;;;0.50;;
40022;SDS011;25713;-35.352;149.036;2023-12-20T11:09:20;1.98;;;0.50;;
40022;SDS011;25713;-35.352;149.036;2023-12-20T11:11:56;3.85;;;0.43;;
40022;SDS011;25713;-35.352;149.036;2023-12-20T11:14:34;1.15;;;0.40;;
40022;SDS011;25713;-35.352;149.036;2023-12-20T11:17:09;1.90;;;0.60;;
40022;SDS011;25713;-35.352;149.036;2023-12-20T11:19:45;1.77;;;0.52;;
40022;SDS011;25713;-35.352;149.036;2023-12-20T11:22:34;4.55;;;0.68;;
40022;SDS011;25713;-35.352;149.036;2023-12-20T11:25:05;2.15;;;0.52;;
40022;SDS011;25713;-35.352;149.036;2023-12-20T11:30:09;2.85;;;0.60;;
40022;SDS011;25713;-35.352;149.036;2023-12-20T11:32:39;1.73;;;0.50;;
40022;SDS011;25713;-35.352;149.036;2023-12-20T11:38:00;1.48;;;0.40;;
40022;SDS011;25713;-35.352;149.036;2023-12-20T11:40:31;2.08;;;0.50;;
40022;SDS011;25713;-35.352;149.036;2023-12-20T11:43:04;2.47;;;0.50;;
40022;SDS011;25713;-35.352;149.036;2023-12-20T11:45:34;1.42;;;0.50;;
40022;SDS011;25713;-35.352;149.036;2023-12-20T11:48:04;0.93;;;0.40;;
40022;SDS011;25713;-35.352;149.036;2023-12-20T11:50:40;1.80;;;0.40;;
40022;SDS011;25713;-35.352;149.036;2023-12-20T11:53:10;2.03;;;0.47;;
40022;SDS011;25713;-35.352;149.036;2023-12-20T11:55:40;2.22;;;0.60;;
40022;SDS011;25713;-35.352;149.036;2023-12-20T11:58:10;2.63;;;0.60;;
40022;SDS011;25713;-35.352;149.036;2023-12-20T12:00:41;0.90;;;0.40;;
40022;SDS011;25713;-35.352;149.036;2023-12-20T12:03:14;1.13;;;0.40;;
40022;SDS011;25713;-35.352;149.036;2023-12-20T12:08:14;1.13;;;0.50;;
40022;SDS011;25713;-35.352;149.036;2023-12-20T12:10:44;1.02;;;0.40;;
40022;SDS011;25713;-35.352;149.036;2023-12-20T12:13:13;2.83;;;0.55;;
40022;SDS011;25713;-35.352;149.036;2023-12-20T12:15:43;1.42;;;0.45;;
40022;SDS011;25713;-35.352;149.036;2023-12-20T12:18:15;2.40;;;0.60;;
40022;SDS011;25713;-35.352;149.036;2023-12-20T12:20:48;0.98;;;0.40;;
40022;SDS011;25713;-35.352;149.036;2023-12-20T12:23:27;1.10;;;0.45;;
40022;SDS011;25713;-35.352;149.036;2023-12-20T12:25:56;1.63;;;0.38;;
40022;SDS011;25713;-35.352;149.036;2023-12-20T12:28:26;0.85;;;0.30;;
40022;SDS011;25713;-35.352;149.036;2023-12-20T12:30:58;1.70;;;0.45;;
40022;SDS011;25713;-35.352;149.036;2023-12-20T12:33:29;1.50;;;0.50;;
40022;SDS011;25713;-35.352;149.036;2023-12-20T12:36:01;0.90;;;0.40;;
40022;SDS011;25713;-35.352;149.036;2023-12-20T12:38:31;1.92;;;0.50;;
40022;SDS011;25713;-35.352;149.036;2023-12-20T12:41:01;1.95;;;0.47;;
40022;SDS011;25713;-35.352;149.036;2023-12-20T12:43:31;1.58;;;0.40;;
40022;SDS011;25713;-35.352;149.036;2023-12-20T12:46:01;0.65;;;0.40;;
40022;SDS011;25713;-35.352;149.036;2023-12-20T12:48:31;0.93;;;0.40;;
40022;SDS011;25713;-35.352;149.036;2023-12-20T12:51:04;1.50;;;0.50;;
40022;SDS011;25713;-35.352;149.036;2023-12-20T12:53:34;0.85;;;0.30;;
40022;SDS011;25713;-35.352;149.036;2023-12-20T12:56:03;1.83;;;0.50;;
40022;SDS011;25713;-35.352;149.036;2023-12-20T12:58:33;2.25;;;0.35;;
40022;SDS011;25713;-35.352;149.036;2023-12-20T13:01:02;1.85;;;0.40;;
40022;SDS011;25713;-35.352;149.036;2023-12-20T13:03:32;0.25;;;0.25;;
40022;SDS011;25713;-35.352;149.036;2023-12-20T13:06:06;0.22;;;0.22;;
40022;SDS011;25713;-35.352;149.036;2023-12-20T13:08:35;0.90;;;0.40;;
40022;SDS011;25713;-35.352;149.036;2023-12-20T13:11:05;2.50;;;0.38;;
40022;SDS011;25713;-35.352;149.036;2023-12-20T13:13:34;0.88;;;0.45;;
40022;SDS011;25713;-35.352;149.036;2023-12-20T13:16:04;0.70;;;0.30;;
40022;SDS011;25713;-35.352;149.036;2023-12-20T13:18:34;0.80;;;0.25;;
40022;SDS011;25713;-35.352;149.036;2023-12-20T13:21:07;0.43;;;0.30;;
40022;SDS011;25713;-35.352;149.036;2023-12-20T13:23:37;0.60;;;0.32;;
40022;SDS011;25713;-35.352;149.036;2023-12-20T13:26:07;0.20;;;0.20;;
40022;SDS011;25713;-35.352;149.036;2023-12-20T13:28:36;1.00;;;0.40;;
40022;SDS011;25713;-35.352;149.036;2023-12-20T13:31:06;0.38;;;0.20;;
40022;SDS011;25713;-35.352;149.036;2023-12-20T13:33:36;0.70;;;0.30;;
40022;SDS011;25713;-35.352;149.036;2023-12-20T13:36:09;1.05;;;0.30;;
40022;SDS011;25713;-35.352;149.036;2023-12-20T13:38:39;0.45;;;0.13;;
40022;SDS011;25713;-35.352;149.036;2023-12-20T13:41:08;0.20;;;0.20;;
40022;SDS011;25713;-35.352;149.036;2023-12-20T13:43:38;0.43;;;0.30;;
40022;SDS011;25713;-35.352;149.036;2023-12-20T13:46:08;0.30;;;0.30;;
40022;SDS011;25713;-35.352;149.036;2023-12-20T13:48:37;0.17;;;0.17;;
40022;SDS011;25713;-35.352;149.036;2023-12-20T13:51:10;0.93;;;0.30;;
40022;SDS011;25713;-35.352;149.036;2023-12-20T13:53:40;0.45;;;0.10;;
40022;SDS011;25713;-35.352;149.036;2023-12-20T13:56:09;0.55;;;0.10;;
40022;SDS011;25713;-35.352;149.036;2023-12-20T13:58:39;1.08;;;0.20;;
40022;SDS011;25713;-35.352;149.036;2023-12-20T14:01:09;0.20;;;0.20;;
40022;SDS011;25713;-35.352;149.036;2023-12-20T14:03:39;0.50;;;0.40;;
40022;SDS011;25713;-35.352;149.036;2023-12-20T14:06:12;0.20;;;0.10;;
40022;SDS011;25713;-35.352;149.036;2023-12-20T14:08:42;0.30;;;0.10;;
40022;SDS011;25713;-35.352;149.036;2023-12-20T14:11:11;0.60;;;0.20;;
40022;SDS011;25713;-35.352;149.036;2023-12-20T14:13:40;0.95;;;0.20;;
40022;SDS011;25713;-35.352;149.036;2023-12-20T14:16:10;0.57;;;0.20;;
40022;SDS011;25713;-35.352;149.036;2023-12-20T14:18:39;3.00;;;0.10;;
40022;SDS011;25713;-35.352;149.036;2023-12-20T14:21:13;1.20;;;0.13;;
40022;SDS011;25713;-35.352;149.036;2023-12-20T14:23:42;1.92;;;0.10;;
40022;SDS011;25713;-35.352;149.036;2023-12-20T14:26:12;0.10;;;0.10;;
40022;SDS011;25713;-35.352;149.036;2023-12-20T14:28:41;0.10;;;0.10;;
40022;SDS011;25713;-35.352;149.036;2023-12-20T14:31:11;0.55;;;0.10;;
40022;SDS011;25713;-35.352;149.036;2023-12-20T14:33:41;0.10;;;0.10;;
40022;SDS011;25713;-35.352;149.036;2023-12-20T14:36:14;0.15;;;0.15;;